Time;durP1;ratioP1;P1;durP2;ratioP2;P2;SDS_P1;SDS_P2;PMS_P1;PMS_P2;Temp;Humidity;BMP_temperature;BMP_pressure;BME280_temperature;BME280_humidity;BME280_pressure;Samples;Min_cycle;Max_cycle;Signal;HPM_P1;HPM_P2
2022/04/11 13:01:16;;;;;;;4.00;1.50;;;14.50;99.90;;;;;;6164678;22;1920005;-55
2022/04/11 13:03:42;;;;;;;4.75;1.70;;;14.40;99.90;;;;;;6171565;23;20442;-56
2022/04/11 13:06:07;;;;;;;3.80;1.50;;;14.20;99.90;;;;;;6196896;23;20348;-57
2022/04/11 13:08:33;;;;;;;3.67;1.40;;;14.50;99.90;;;;;;6197280;23;20356;-57
2022/04/11 13:10:58;;;;;;;4.03;1.70;;;14.80;99.90;;;;;;6197868;23;20363;-57
2022/04/11 13:13:26;;;;;;;4.17;1.60;;;15.30;99.90;;;;;;6200029;23;20497;-58
2022/04/11 13:18:35;;;;;;;3.35;1.48;;;16.10;99.90;;;;;;6198253;23;20351;-56
2022/04/11 13:21:01;;;;;;;4.13;1.70;;;16.20;99.90;;;;;;6197304;23;20363;-58
2022/04/11 13:23:26;;;;;;;3.38;1.52;;;16.40;99.90;;;;;;6190702;23;20736;-56
2022/04/11 13:25:52;;;;;;;3.33;1.43;;;16.00;99.80;;;;;;6197008;23;20645;-58
2022/04/11 13:28:17;;;;;;;3.55;1.77;;;16.20;99.90;;;;;;6196058;23;20628;-57
2022/04/11 13:30:44;;;;;;;3.78;1.40;;;16.30;99.20;;;;;;6194938;23;20356;-56
2022/04/11 13:33:09;;;;;;;4.03;1.67;;;16.60;99.90;;;;;;6196602;23;20351;-55
2022/04/11 13:35:35;;;;;;;3.67;1.43;;;16.70;99.00;;;;;;6202807;23;20351;-58
2022/04/11 13:38:00;;;;;;;3.90;1.50;;;16.80;99.80;;;;;;6204340;23;21014;-55
2022/04/11 13:40:27;;;;;;;4.50;1.80;;;17.40;99.50;;;;;;6207039;23;20368;-57
2022/04/11 13:42:54;;;;;;;3.80;1.70;;;17.50;97.50;;;;;;6204730;23;20407;-56
2022/04/11 13:45:20;;;;;;;5.47;1.65;;;17.00;97.90;;;;;;6203667;23;20358;-57
2022/04/11 13:47:45;;;;;;;3.30;1.55;;;16.90;97.80;;;;;;6197677;23;20356;-58
2022/04/11 13:50:11;;;;;;;3.93;1.80;;;16.90;98.30;;;;;;6194939;23;20390;-56
2022/04/11 13:52:38;;;;;;;5.07;1.83;;;16.90;97.40;;;;;;6193733;23;20383;-58
2022/04/11 13:55:05;;;;;;;4.10;1.63;;;17.00;97.20;;;;;;6191037;23;20360;-57
2022/04/11 13:57:30;;;;;;;3.65;1.52;;;16.90;97.30;;;;;;6185940;23;20567;-56
2022/04/11 13:59:56;;;;;;;3.05;1.70;;;17.10;98.10;;;;;;6188484;23;20363;-58
2022/04/11 14:02:21;;;;;;;3.00;1.50;;;17.70;98.60;;;;;;6193032;23;20799;-55
2022/04/11 14:04:47;;;;;;;3.35;1.50;;;18.00;97.70;;;;;;6191110;23;20360;-57
2022/04/11 14:07:12;;;;;;;5.93;1.80;;;18.20;96.50;;;;;;6191562;23;20390;-58
2022/04/11 14:09:38;;;;;;;4.88;1.85;;;18.30;96.80;;;;;;6193174;23;20822;-58
2022/04/11 14:12:07;;;;;;;2.73;1.53;;;18.20;96.00;;;;;;6193972;23;20366;-58
2022/04/11 14:14:32;;;;;;;3.40;1.60;;;18.10;95.70;;;;;;6198844;23;20594;-57
2022/04/11 14:16:58;;;;;;;4.20;1.60;;;17.70;95.50;;;;;;6198849;23;20968;-56
2022/04/11 14:19:23;;;;;;;3.43;1.60;;;18.00;95.40;;;;;;6200087;23;20391;-58
2022/04/11 14:21:49;;;;;;;3.65;1.67;;;18.20;95.70;;;;;;6205220;23;20808;-58
2022/04/11 14:24:14;;;;;;;4.43;1.70;;;18.50;95.30;;;;;;6203914;23;20507;-57
2022/04/11 14:26:40;;;;;;;2.47;1.10;;;18.20;94.70;;;;;;6202727;23;20363;-58
2022/04/11 14:29:05;;;;;;;4.27;1.60;;;18.90;94.90;;;;;;6204527;23;20724;-58
2022/04/11 14:31:31;;;;;;;3.67;1.80;;;19.40;94.60;;;;;;6206331;23;20507;-58
2022/04/11 14:33:56;;;;;;;2.30;1.47;;;19.40;93.70;;;;;;6201292;23;20348;-58
2022/04/11 14:36:22;;;;;;;3.13;1.30;;;19.30;93.80;;;;;;6201987;23;20445;-58
2022/04/11 14:38:47;;;;;;;2.20;1.40;;;19.50;93.70;;;;;;6199372;23;20363;-56
2022/04/11 14:41:13;;;;;;;5.35;2.05;;;20.00;93.40;;;;;;6200205;23;20550;-56
2022/04/11 14:43:39;;;;;;;3.10;1.48;;;19.80;92.60;;;;;;6196098;23;20351;-58
2022/04/11 14:46:04;;;;;;;4.13;1.63;;;20.00;92.60;;;;;;6195888;23;20474;-57
2022/04/11 14:48:30;;;;;;;4.43;1.60;;;20.10;92.60;;;;;;6197645;23;20557;-58
2022/04/11 14:50:56;;;;;;;2.55;1.45;;;20.00;92.50;;;;;;6196564;23;20435;-58
2022/04/11 14:53:22;;;;;;;3.25;1.45;;;19.90;92.30;;;;;;6198366;23;20355;-58
2022/04/11 14:55:47;;;;;;;2.77;1.30;;;19.50;92.20;;;;;;6197867;23;20378;-57
2022/04/11 14:58:14;;;;;;;2.80;1.42;;;20.10;92.60;;;;;;6199602;23;20488;-57
2022/04/11 15:00:39;;;;;;;3.30;1.63;;;20.40;92.00;;;;;;6200156;23;20913;-55
2022/04/11 15:03:05;;;;;;;3.87;1.70;;;20.00;90.40;;;;;;6198008;23;20375;-54
2022/04/11 15:05:30;;;;;;;3.10;1.53;;;19.70;90.60;;;;;;6197379;23;20566;-57
2022/04/11 15:07:56;;;;;;;3.33;1.50;;;19.20;90.70;;;;;;6196678;23;20347;-57
2022/04/11 15:10:22;;;;;;;2.87;1.50;;;19.70;91.20;;;;;;6207053;23;20760;-54
2022/04/11 15:12:47;;;;;;;3.88;1.88;;;19.60;90.70;;;;;;6205055;23;20348;-56
2022/04/11 15:15:13;;;;;;;2.63;1.40;;;18.90;90.60;;;;;;6206249;23;20656;-57
2022/04/11 15:17:39;;;;;;;4.13;1.50;;;19.00;91.60;;;;;;6206979;23;20417;-58
2022/04/11 15:20:08;;;;;;;4.22;1.73;;;19.20;91.80;;;;;;6209181;23;20410;-57
2022/04/11 15:22:33;;;;;;;4.20;1.58;;;18.80;90.90;;;;;;6205595;23;20351;-56
2022/04/11 15:24:59;;;;;;;3.70;1.57;;;18.70;91.80;;;;;;6206700;23;20378;-56
2022/04/11 15:27:25;;;;;;;3.00;1.40;;;18.80;92.40;;;;;;6207528;23;20978;-57
2022/04/11 15:29:52;;;;;;;4.60;1.67;;;19.30;92.20;;;;;;6206483;23;20526;-54
2022/04/11 15:32:18;;;;;;;3.10;1.40;;;19.40;91.70;;;;;;6206208;23;20359;-56
2022/04/11 15:34:46;;;;;;;3.97;1.50;;;19.40;91.30;;;;;;6200199;23;20771;-58
2022/04/11 15:37:11;;;;;;;3.28;1.63;;;19.70;91.30;;;;;;6198727;23;20745;-57
2022/04/11 15:39:37;;;;;;;4.45;1.85;;;19.20;90.70;;;;;;6197149;23;20391;-57
2022/04/11 15:42:04;;;;;;;3.63;1.60;;;18.80;90.80;;;;;;6194903;23;20745;-58
2022/04/11 15:44:33;;;;;;;3.15;1.90;;;19.10;91.10;;;;;;6196531;23;20729;-55
2022/04/11 15:46:59;;;;;;;4.47;1.45;;;19.30;91.30;;;;;;6196108;23;20606;-58
2022/04/11 15:49:25;;;;;;;2.47;1.45;;;19.60;91.00;;;;;;6197762;23;20498;-54
2022/04/11 15:51:51;;;;;;;5.60;1.75;;;20.00;90.60;;;;;;6202137;23;20340;-57
2022/04/11 15:54:16;;;;;;;2.50;1.30;;;20.10;90.50;;;;;;6200755;23;20354;-56
2022/04/11 15:56:42;;;;;;;2.03;1.20;;;20.00;90.30;;;;;;6199475;23;20446;-57
2022/04/11 15:59:08;;;;;;;3.22;1.60;;;20.10;90.40;;;;;;6204180;23;20348;-52
2022/04/11 16:01:35;;;;;;;5.63;1.60;;;20.00;90.50;;;;;;6202320;23;20399;-57
2022/04/11 16:04:01;;;;;;;3.70;1.47;;;20.00;90.10;;;;;;6204738;23;20367;-55
2022/04/11 16:06:27;;;;;;;3.55;1.50;;;20.00;90.10;;;;;;6209099;23;20800;-57
2022/04/11 16:08:52;;;;;;;3.45;1.60;;;19.90;90.00;;;;;;6205717;23;20940;-57
2022/04/11 16:11:18;;;;;;;3.37;1.60;;;19.80;90.10;;;;;;6201185;23;20559;-56
2022/04/11 16:13:43;;;;;;;2.88;1.50;;;19.80;90.20;;;;;;6198374;23;20346;-56
2022/04/11 16:16:10;;;;;;;2.77;1.40;;;20.10;90.40;;;;;;6199261;23;20515;-55
2022/04/11 16:18:36;;;;;;;2.43;1.43;;;20.00;90.20;;;;;;6199477;23;20460;-57
2022/04/11 16:21:02;;;;;;;2.35;1.45;;;19.90;90.50;;;;;;6203965;23;20428;-58
2022/04/11 16:23:30;;;;;;;3.88;1.80;;;20.10;91.00;;;;;;6201424;23;20934;-54
2022/04/11 16:25:56;;;;;;;4.30;1.50;;;19.80;90.20;;;;;;6199268;23;20477;-58
2022/04/11 16:28:22;;;;;;;3.20;1.40;;;19.60;90.00;;;;;;6198687;23;20352;-58
2022/04/11 16:30:48;;;;;;;3.65;1.70;;;19.50;90.30;;;;;;6198567;23;20378;-58
2022/04/11 16:33:13;;;;;;;2.73;1.70;;;19.60;90.40;;;;;;6198502;23;20359;-57
2022/04/11 16:35:39;;;;;;;3.97;1.60;;;19.40;90.30;;;;;;6197091;23;20347;-57
2022/04/11 16:38:05;;;;;;;3.92;1.80;;;19.40;90.20;;;;;;6195689;23;20457;-57
2022/04/11 16:40:32;;;;;;;2.73;1.43;;;19.20;90.00;;;;;;6197085;23;20474;-58
2022/04/11 16:42:58;;;;;;;3.90;1.80;;;19.00;89.90;;;;;;6195993;23;20474;-53
2022/04/11 16:45:23;;;;;;;4.23;1.90;;;19.10;90.20;;;;;;6198159;23;20339;-55
2022/04/11 16:47:49;;;;;;;4.10;1.73;;;19.00;90.90;;;;;;6198917;23;20694;-58
2022/04/11 16:50:15;;;;;;;2.97;1.73;;;19.10;90.40;;;;;;6201371;23;20508;-56
2022/04/11 16:52:41;;;;;;;3.33;1.40;;;19.10;90.80;;;;;;6198133;23;20590;-56
2022/04/11 16:55:07;;;;;;;3.53;1.70;;;19.30;90.50;;;;;;6200967;23;20339;-58
2022/04/11 16:57:33;;;;;;;4.40;1.80;;;19.40;90.80;;;;;;6197873;23;20445;-59
2022/04/11 16:59:58;;;;;;;5.50;2.08;;;19.30;90.00;;;;;;6195344;23;20355;-55
2022/04/11 17:02:24;;;;;;;2.72;1.60;;;19.50;90.20;;;;;;6197149;23;20740;-56
2022/04/11 17:04:49;;;;;;;3.57;1.70;;;19.50;90.20;;;;;;6198094;23;20597;-56
2022/04/11 17:07:15;;;;;;;4.70;2.10;;;19.50;90.30;;;;;;6197005;23;20351;-56
2022/04/11 17:09:40;;;;;;;4.40;1.60;;;19.60;90.30;;;;;;6199021;23;20450;-55
2022/04/11 17:12:07;;;;;;;4.03;1.63;;;19.50;89.80;;;;;;6198409;23;20378;-55
2022/04/11 17:14:33;;;;;;;2.67;1.67;;;19.30;88.90;;;;;;6198686;23;20763;-57
2022/04/11 17:19:43;;;;;;;2.50;1.50;;;18.80;90.50;;;;;;6199442;23;20645;-57
2022/04/11 17:22:10;;;;;;;3.75;1.50;;;18.70;90.40;;;;;;6199255;23;20450;-58
2022/04/11 17:24:36;;;;;;;3.78;2.20;;;18.80;90.50;;;;;;6199868;23;20390;-57
2022/04/11 17:27:02;;;;;;;3.13;1.30;;;18.70;90.50;;;;;;6198468;23;20355;-55
2022/04/11 17:29:28;;;;;;;3.25;1.50;;;18.70;90.30;;;;;;6197506;23;20646;-56
2022/04/11 17:31:54;;;;;;;3.20;1.35;;;18.50;89.90;;;;;;6200727;23;20543;-57
2022/04/11 17:34:20;;;;;;;3.78;1.52;;;18.70;90.00;;;;;;6199021;23;20548;-54
2022/04/11 17:36:45;;;;;;;2.73;1.30;;;18.60;90.40;;;;;;6201758;23;21058;-56
2022/04/11 17:39:11;;;;;;;3.07;1.40;;;18.50;90.10;;;;;;6200628;23;20904;-57
2022/04/11 17:41:37;;;;;;;3.03;1.60;;;18.20;90.30;;;;;;6199017;23;20371;-55
2022/04/11 17:44:03;;;;;;;3.93;1.40;;;18.10;90.50;;;;;;6196918;23;20564;-53
2022/04/11 17:46:28;;;;;;;4.00;1.23;;;18.00;90.60;;;;;;6195496;23;20863;-55
2022/04/11 17:48:54;;;;;;;5.43;1.30;;;17.70;90.20;;;;;;6198422;23;20344;-56
2022/04/11 17:51:20;;;;;;;4.43;1.50;;;17.70;90.60;;;;;;6196847;23;20383;-54
2022/04/11 17:53:45;;;;;;;2.88;1.15;;;17.50;90.60;;;;;;6200272;23;20460;-55
2022/04/11 17:56:11;;;;;;;1.77;1.20;;;17.50;91.00;;;;;;6201228;23;20352;-55
2022/04/11 17:58:37;;;;;;;3.55;1.20;;;17.30;90.80;;;;;;6198606;23;20347;-56
2022/04/11 18:01:03;;;;;;;3.33;1.38;;;17.20;90.70;;;;;;6197419;23;20769;-54
2022/04/11 18:03:29;;;;;;;3.53;1.50;;;17.00;90.60;;;;;;6198129;23;20371;-56
2022/04/11 18:05:55;;;;;;;2.47;1.20;;;16.90;90.80;;;;;;6199485;23;20359;-55
2022/04/11 18:08:21;;;;;;;3.17;1.27;;;16.90;90.90;;;;;;6198192;23;20355;-56
2022/04/11 18:10:47;;;;;;;2.97;1.10;;;16.90;90.70;;;;;;6201323;23;20352;-54
2022/04/11 18:13:13;;;;;;;3.20;1.38;;;16.60;91.10;;;;;;6199921;23;20643;-57
2022/04/11 18:15:39;;;;;;;1.77;1.00;;;16.40;90.90;;;;;;6200548;23;20354;-57
2022/04/11 18:18:06;;;;;;;4.30;1.57;;;16.30;91.20;;;;;;6200370;23;20757;-57
2022/04/11 18:20:32;;;;;;;2.65;1.20;;;16.40;91.10;;;;;;6200952;23;20371;-56
2022/04/11 18:22:59;;;;;;;3.15;1.40;;;16.40;91.00;;;;;;6199872;23;20383;-54
2022/04/11 18:25:25;;;;;;;3.63;1.10;;;16.40;91.30;;;;;;6199771;23;20382;-58
2022/04/11 18:27:51;;;;;;;3.38;1.17;;;16.30;91.00;;;;;;6201788;23;20657;-56
2022/04/11 18:33:01;;;;;;;2.92;1.23;;;16.20;91.50;;;;;;6203104;23;20535;-58
2022/04/11 18:35:27;;;;;;;3.22;1.40;;;16.10;91.40;;;;;;6202475;23;20348;-54
2022/04/11 18:37:58;;;;;;;2.45;1.48;;;16.10;91.40;;;;;;6203139;23;20383;-57
2022/04/11 18:40:27;;;;;;;4.78;1.50;;;16.20;91.70;;;;;;6202501;23;20367;-56
2022/04/11 18:42:53;;;;;;;3.60;1.55;;;16.10;92.40;;;;;;6210341;23;20348;-57
2022/04/11 18:45:19;;;;;;;2.25;1.20;;;16.00;92.40;;;;;;6211030;23;20339;-58
2022/04/11 18:47:44;;;;;;;4.32;1.90;;;15.90;92.80;;;;;;6212064;23;20402;-56
2022/04/11 18:50:10;;;;;;;4.47;1.70;;;15.70;92.00;;;;;;6207607;23;20352;-55
2022/04/11 18:52:36;;;;;;;3.80;1.90;;;15.50;92.30;;;;;;6212254;23;20390;-58
2022/04/11 18:55:03;;;;;;;3.87;1.70;;;15.60;92.50;;;;;;6208618;23;20366;-55
2022/04/11 18:57:28;;;;;;;3.33;1.65;;;15.50;92.40;;;;;;6202502;23;20927;-57
2022/04/11 18:59:54;;;;;;;2.60;1.65;;;15.30;92.30;;;;;;6204993;23;20938;-56
2022/04/11 19:02:20;;;;;;;4.00;1.60;;;15.20;92.60;;;;;;6202909;23;20445;-57
2022/04/11 19:04:45;;;;;;;3.43;1.70;;;15.30;92.70;;;;;;6203232;23;20653;-56
2022/04/11 19:07:12;;;;;;;3.65;2.05;;;15.30;92.90;;;;;;6203031;23;20644;-58
2022/04/11 19:09:38;;;;;;;3.83;1.90;;;15.40;93.00;;;;;;6202872;23;20355;-58
2022/04/11 19:12:06;;;;;;;3.28;1.60;;;15.40;93.20;;;;;;6201826;23;20635;-56
2022/04/11 19:14:33;;;;;;;5.63;2.15;;;15.30;93.10;;;;;;6205234;23;20680;-58
2022/04/11 19:16:59;;;;;;;3.40;1.83;;;15.20;93.10;;;;;;6204209;23;20372;-58
2022/04/11 19:19:24;;;;;;;4.43;2.08;;;15.20;93.40;;;;;;6207297;23;20355;-56
2022/04/11 19:21:50;;;;;;;4.17;2.40;;;15.10;93.70;;;;;;6205496;23;20682;-58
2022/04/11 19:24:16;;;;;;;7.90;2.20;;;15.00;93.80;;;;;;6208593;23;20421;-57
2022/04/11 19:26:41;;;;;;;5.50;2.10;;;15.00;94.00;;;;;;6205688;23;20359;-58
2022/04/11 19:29:07;;;;;;;3.53;2.03;;;14.90;93.90;;;;;;6205050;23;20360;-57
2022/04/11 19:31:35;;;;;;;4.10;2.10;;;14.90;94.20;;;;;;6205169;23;20751;-58
2022/04/11 19:34:06;;;;;;;5.57;2.30;;;14.80;94.20;;;;;;6203630;23;20677;-58
2022/04/11 19:36:31;;;;;;;3.47;1.95;;;14.60;94.60;;;;;;6203255;23;20375;-58
2022/04/11 19:38:59;;;;;;;4.93;2.70;;;14.60;94.80;;;;;;6203752;23;20390;-56
2022/04/11 19:41:25;;;;;;;3.88;1.95;;;14.40;94.90;;;;;;6208351;23;20378;-57
2022/04/11 19:43:50;;;;;;;4.63;2.08;;;14.30;95.00;;;;;;6203740;23;20340;-54
2022/04/11 19:46:16;;;;;;;2.60;1.73;;;14.20;95.20;;;;;;6201534;23;20864;-57
2022/04/11 19:54:50;;;;;;;3.30;2.15;;;14.10;96.20;;;;;;6045638;23;20537;-56
2022/04/11 19:57:26;;;;;;;3.73;2.43;;;14.10;96.40;;;;;;6022031;23;20536;-58
2022/04/11 19:59:53;;;;;;;4.28;2.53;;;14.00;96.70;;;;;;6202661;23;20650;-54
2022/04/11 20:02:19;;;;;;;3.40;2.08;;;13.90;97.60;;;;;;6203620;23;20482;-57
2022/04/11 20:04:45;;;;;;;5.90;2.10;;;13.80;98.20;;;;;;6204366;23;20439;-57
2022/04/11 20:07:11;;;;;;;5.10;2.67;;;13.60;98.70;;;;;;6205928;23;20346;-56
2022/04/11 20:09:36;;;;;;;5.07;2.20;;;13.50;99.90;;;;;;6205856;23;20352;-54
2022/04/11 20:12:02;;;;;;;5.10;2.40;;;13.50;99.90;;;;;;6208786;23;20355;-57
2022/04/11 20:14:28;;;;;;;3.65;2.30;;;13.40;99.90;;;;;;6209876;23;20749;-54
2022/04/11 20:16:54;;;;;;;5.63;2.45;;;13.50;99.90;;;;;;6208477;23;20402;-56
2022/04/11 20:19:21;;;;;;;3.72;2.17;;;13.40;99.90;;;;;;6206353;23;20356;-55
2022/04/11 20:21:47;;;;;;;4.20;2.40;;;13.40;99.90;;;;;;6205469;23;20378;-56
2022/04/11 20:24:13;;;;;;;6.57;2.55;;;13.30;99.90;;;;;;6206755;23;20354;-56
2022/04/11 20:26:38;;;;;;;4.00;2.53;;;13.30;99.90;;;;;;6206866;23;20348;-57
2022/04/11 20:29:04;;;;;;;5.60;2.33;;;13.20;99.90;;;;;;6203803;23;20472;-58
2022/04/11 20:31:30;;;;;;;4.03;2.45;;;13.00;99.90;;;;;;6204091;23;20630;-56
2022/04/11 20:33:56;;;;;;;5.13;2.40;;;13.00;99.90;;;;;;6201455;23;20454;-58
2022/04/11 20:36:21;;;;;;;6.30;3.00;;;13.00;99.90;;;;;;6199561;23;20446;-61
2022/04/11 20:38:47;;;;;;;5.30;2.92;;;12.80;99.90;;;;;;6197567;23;20636;-52
2022/04/11 20:41:12;;;;;;;4.83;2.40;;;12.80;99.90;;;;;;6196314;23;20360;-56
2022/04/11 20:43:38;;;;;;;6.13;2.50;;;12.70;99.90;;;;;;6199652;23;20457;-55
2022/04/11 20:46:03;;;;;;;5.72;2.90;;;12.70;99.90;;;;;;6196594;23;20359;-56
2022/04/11 20:48:33;;;;;;;4.03;2.60;;;12.60;99.90;;;;;;6195841;23;20350;-56
2022/04/11 20:51:00;;;;;;;4.73;2.77;;;12.50;99.90;;;;;;6196426;23;20352;-62
2022/04/11 20:53:27;;;;;;;6.18;2.80;;;12.50;99.90;;;;;;6198933;23;20550;-60
2022/04/11 20:55:53;;;;;;;6.97;2.80;;;12.30;99.90;;;;;;6199461;23;20564;-60
2022/04/11 20:58:21;;;;;;;4.40;2.20;;;12.10;99.90;;;;;;6202585;23;20356;-56
2022/04/11 21:00:47;;;;;;;6.15;2.60;;;12.00;99.90;;;;;;6201281;23;20374;-57
2022/04/11 21:03:14;;;;;;;5.10;2.70;;;12.10;99.90;;;;;;6204764;23;20553;-56
2022/04/11 21:05:40;;;;;;;4.40;2.50;;;12.00;99.90;;;;;;6203522;23;20669;-59
2022/04/11 21:08:09;;;;;;;4.97;2.53;;;12.10;99.90;;;;;;6202727;23;20756;-56
2022/04/11 21:10:35;;;;;;;6.18;2.60;;;12.10;99.90;;;;;;6203305;23;20645;-56
2022/04/11 21:13:02;;;;;;;5.90;2.35;;;12.10;99.90;;;;;;6201279;23;20633;-57
2022/04/11 21:15:28;;;;;;;5.28;2.55;;;11.90;99.90;;;;;;6203478;23;20351;-56
2022/04/11 21:17:54;;;;;;;6.82;2.50;;;11.90;99.90;;;;;;6201387;23;20892;-54
2022/04/11 21:20:19;;;;;;;4.70;2.30;;;11.80;99.90;;;;;;6202354;23;20402;-55
2022/04/11 21:22:45;;;;;;;5.00;2.50;;;11.80;99.90;;;;;;6204087;23;20391;-56
2022/04/11 21:25:11;;;;;;;4.32;2.10;;;11.70;99.90;;;;;;6206236;23;20740;-58
2022/04/11 21:27:37;;;;;;;7.65;2.67;;;11.60;99.90;;;;;;6203806;23;20362;-58
2022/04/11 21:30:05;;;;;;;5.05;2.63;;;11.50;99.90;;;;;;6201541;23;20363;-57
2022/04/11 21:32:31;;;;;;;6.00;2.45;;;11.50;99.90;;;;;;6202985;23;20367;-57
2022/04/11 21:34:56;;;;;;;4.63;2.50;;;11.50;99.90;;;;;;6202976;23;20427;-58
2022/04/11 21:37:22;;;;;;;5.72;2.20;;;11.50;99.90;;;;;;6199851;23;20355;-58
2022/04/11 21:39:47;;;;;;;5.13;2.13;;;11.40;99.90;;;;;;6199442;23;20426;-59
2022/04/11 21:42:13;;;;;;;5.47;2.50;;;11.40;99.90;;;;;;6197960;23;20384;-58
2022/04/11 21:44:38;;;;;;;4.07;2.13;;;11.30;99.90;;;;;;6196760;23;20508;-57
2022/04/11 21:47:04;;;;;;;5.40;2.27;;;11.20;99.90;;;;;;6196795;23;20638;-59
2022/04/11 21:49:31;;;;;;;4.83;2.60;;;11.20;99.90;;;;;;6197031;23;20633;-56
2022/04/11 21:52:01;;;;;;;5.60;2.40;;;11.20;99.90;;;;;;6196165;23;20375;-59
2022/04/11 21:54:26;;;;;;;5.18;2.50;;;11.10;99.90;;;;;;6199409;23;20344;-55
2022/04/11 21:56:52;;;;;;;6.15;2.70;;;11.10;99.90;;;;;;6200367;23;20378;-57
2022/04/11 21:59:17;;;;;;;6.00;2.37;;;11.00;99.90;;;;;;6198723;23;20616;-58
2022/04/11 22:01:43;;;;;;;4.73;2.30;;;11.00;99.90;;;;;;6199487;23;20497;-56
2022/04/11 22:04:08;;;;;;;5.43;2.50;;;10.90;99.90;;;;;;6197983;23;20429;-57
2022/04/11 22:06:34;;;;;;;5.03;2.63;;;10.80;99.90;;;;;;6198701;23;20336;-55
2022/04/11 22:09:00;;;;;;;4.05;2.50;;;10.70;99.90;;;;;;6200400;23;20634;-59
2022/04/11 22:11:26;;;;;;;5.10;2.07;;;10.60;99.90;;;;;;6196562;23;20355;-58
2022/04/11 22:13:52;;;;;;;5.30;2.30;;;10.70;99.90;;;;;;6193741;23;20356;-58
2022/04/11 22:16:18;;;;;;;5.85;2.83;;;10.70;99.90;;;;;;6192191;23;20359;-58
2022/04/11 22:18:45;;;;;;;5.27;2.37;;;10.60;99.90;;;;;;6191288;23;20701;-58
2022/04/11 22:21:11;;;;;;;6.72;2.58;;;10.60;99.90;;;;;;6192668;23;20710;-57
2022/04/11 22:23:37;;;;;;;5.68;2.10;;;10.60;99.90;;;;;;6191621;23;20432;-56
2022/04/11 22:26:03;;;;;;;5.53;2.50;;;10.50;99.90;;;;;;6194521;23;20609;-55
2022/04/11 22:28:29;;;;;;;5.32;2.30;;;10.50;99.90;;;;;;6197114;23;20422;-58
2022/04/11 22:30:54;;;;;;;5.32;2.17;;;10.50;99.90;;;;;;6199929;23;20413;-57
2022/04/11 22:33:20;;;;;;;5.97;2.40;;;10.40;99.90;;;;;;6201751;23;20359;-57
2022/04/11 22:35:45;;;;;;;5.77;2.40;;;10.40;99.90;;;;;;6203100;23;20354;-58
2022/04/11 22:38:13;;;;;;;4.93;2.47;;;10.40;99.90;;;;;;6205680;23;20383;-55
2022/04/11 22:40:39;;;;;;;5.57;2.67;;;10.30;99.90;;;;;;6204570;23;20427;-58
2022/04/11 22:43:05;;;;;;;3.97;2.08;;;10.20;99.90;;;;;;6202673;23;20654;-58
2022/04/11 22:45:31;;;;;;;4.75;2.10;;;10.20;99.90;;;;;;6203873;23;20831;-58
2022/04/11 22:47:56;;;;;;;6.53;2.65;;;10.30;99.90;;;;;;6204370;23;20598;-57
2022/04/11 22:50:22;;;;;;;4.47;2.10;;;10.20;99.90;;;;;;6202947;23;20718;-58
2022/04/11 22:52:47;;;;;;;4.87;2.50;;;10.20;99.90;;;;;;6202791;23;20686;-58
2022/04/11 22:55:13;;;;;;;6.03;2.45;;;10.10;99.90;;;;;;6203828;23;20343;-57
2022/04/11 22:57:39;;;;;;;6.07;2.50;;;10.10;99.90;;;;;;6205293;23;20619;-56
2022/04/11 23:00:09;;;;;;;5.13;2.50;;;10.00;99.90;;;;;;6204870;23;20370;-56
2022/04/11 23:02:35;;;;;;;4.90;2.40;;;9.90;99.90;;;;;;6203320;23;20452;-58
2022/04/11 23:05:00;;;;;;;4.68;2.38;;;10.00;99.90;;;;;;6206571;23;20351;-57
2022/04/11 23:07:26;;;;;;;3.43;2.10;;;10.00;99.90;;;;;;6206301;23;20748;-55
2022/04/11 23:09:52;;;;;;;5.77;2.40;;;9.90;99.90;;;;;;6206575;23;20355;-56
2022/04/11 23:12:18;;;;;;;5.83;2.50;;;9.90;99.90;;;;;;6207637;23;20351;-57
2022/04/11 23:14:43;;;;;;;3.73;2.07;;;9.90;99.90;;;;;;6209571;23;20363;-57
2022/04/11 23:17:09;;;;;;;4.25;2.05;;;9.80;99.90;;;;;;6208597;23;20775;-54
2022/04/11 23:19:34;;;;;;;5.03;2.23;;;9.90;99.90;;;;;;6206367;23;20370;-55
2022/04/11 23:22:00;;;;;;;6.93;2.70;;;9.80;99.90;;;;;;6206887;23;20452;-56
2022/04/11 23:24:25;;;;;;;4.53;2.27;;;9.70;99.90;;;;;;6208215;23;20753;-55
2022/04/11 23:26:51;;;;;;;4.17;2.20;;;9.70;99.90;;;;;;6207396;23;20465;-56
2022/04/11 23:29:16;;;;;;;7.53;2.80;;;9.70;99.90;;;;;;6209105;23;20356;-56
2022/04/11 23:31:42;;;;;;;3.88;1.90;;;9.60;99.90;;;;;;6210595;23;20415;-56
2022/04/11 23:34:07;;;;;;;4.83;2.10;;;9.50;99.90;;;;;;6210199;23;20686;-55
2022/04/11 23:36:33;;;;;;;5.25;2.38;;;9.50;99.90;;;;;;6208589;23;20379;-56
2022/04/11 23:38:58;;;;;;;4.80;2.13;;;9.40;99.90;;;;;;6209824;23;20355;-55
2022/04/11 23:41:25;;;;;;;5.73;2.50;;;9.50;99.90;;;;;;6211209;23;20368;-57
2022/04/11 23:43:50;;;;;;;5.30;2.40;;;9.40;99.90;;;;;;6208779;23;20832;-57
2022/04/11 23:46:16;;;;;;;4.05;2.10;;;9.40;99.90;;;;;;6206759;23;20703;-56
2022/04/11 23:48:43;;;;;;;4.43;2.00;;;9.40;99.90;;;;;;6207533;23;20624;-56
2022/04/11 23:51:09;;;;;;;5.17;2.20;;;9.40;99.90;;;;;;6208328;23;20406;-55
2022/04/11 23:53:35;;;;;;;5.35;2.25;;;9.40;99.90;;;;;;6207554;23;20352;-57
2022/04/11 23:56:05;;;;;;;6.00;2.10;;;9.30;99.90;;;;;;6208325;23;20390;-56
2022/04/11 23:58:32;;;;;;;4.93;2.20;;;9.30;99.90;;;;;;6208610;23;20351;-54
